Westview Chinook — VG3278 — position and weather

sailwx.info

Track history (hours):
 
Tides and Currents Weather Stations Pressure Air Temp Water Temp Dewpoint Dewpoint Depression Visibility Wind Speed Wind Dir Waves Ship Positions

Westview Chinook

Last reported at 2014-Oct-25 02:33 UTC. Time now 2014-Oct-25 03:30 UTC.
Position N 49°12' W 123°03'.

Length 16 m; draft 3.5 m.

Type: Towing. MMSI: 316005622.

Date/timePositionNaut miles runAvg speedWind from/ knotsBaromVisibWave heightAir tempDewpointWater temp
2014-Oct-25 02:33N 49°12' W 123°03'0 0.0
2014-Oct-25 01:33N 49°12' W 123°03'0 0.0
2014-Oct-25 00:33N 49°12' W 123°03'0 0.0
2014-Oct-24 23:33N 49°12' W 123°03'0 0.4
2014-Oct-24 22:33N 49°12' W 123°02'5 4.7
2014-Oct-24 21:33N 49°11' W 122°55'1 1.3
2014-Oct-24 20:33N 49°10' W 122°56'7 7.0
2014-Oct-24 19:33N 49°07' W 123°06'4 3.9
2014-Oct-24 18:33N 49°07' W 123°11'3 3.4
2014-Oct-24 17:33N 49°07' W 123°06'8 7.7
2014-Oct-24 16:33N 49°10' W 122°56'7 6.6
2014-Oct-24 15:31N 49°13' W 122°46'4 3.9
2014-Oct-24 14:33N 49°11' W 122°41'5 5.0
2014-Oct-24 13:33N 49°13' W 122°48'4 3.8
2014-Oct-24 12:32N 49°13' W 122°54'0 0.5
2014-Oct-24 11:33N 49°13' W 122°53'4 4.2
2014-Oct-24 10:33N 49°10' W 122°57'3 2.7
2014-Oct-24 09:33N 49°12' W 122°54'1 1.5
2014-Oct-24 08:33N 49°13' W 122°53'7 6.8
2014-Oct-24 07:33N 49°11' W 122°43'1 0.9
2014-Oct-24 06:33N 49°11' W 122°42'3 2.7
2014-Oct-24 05:27N 49°13' W 122°45'4 4.9
2014-Oct-24 04:33N 49°13' W 122°52'5 5.2
2014-Oct-24 03:33N 49°11' W 122°59'4 3.7
2014-Oct-24 02:33N 49°12' W 123°04'6 5.5
2014-Oct-24 01:33N 49°10' W 122°56'3 2.9
2014-Oct-24 00:33N 49°12' W 122°54'7 6.6
2014-Oct-23 23:33N 49°13' W 122°44'2 2.3
2014-Oct-23 22:33N 49°11' W 122°41'1 0.6
2014-Oct-23 21:33N 49°11' W 122°42'2 1.6
2014-Oct-23 20:30N 49°12' W 122°44'5 4.9
2014-Oct-23 19:33N 49°13' W 122°51'5 4.5
2014-Oct-23 18:33N 49°10' W 122°56'1 1.1
2014-Oct-23 17:33N 49°09' W 122°57'5 4.7
2014-Oct-23 16:33N 49°13' W 122°53'6 5.7
2014-Oct-23 15:33N 49°13' W 122°44'2 2.2
2014-Oct-23 14:33N 49°11' W 122°41'6 6.1
2014-Oct-23 13:33N 49°13' W 122°50'5 4.4
2014-Oct-23 12:27N 49°12' W 122°57'5 5.1
2014-Oct-23 11:33N 49°12' W 123°04'3 3.2
2014-Oct-23 10:34N 49°12' W 123°09'3 3.3
2014-Oct-23 09:33N 49°12' W 123°04'6 5.3
2014-Oct-23 08:30N 49°12' W 122°56'3 3.3
2014-Oct-23 07:34N 49°13' W 122°51'1 0.8
2014-Oct-23 06:33N 49°13' W 122°52'7 6.9
2014-Oct-23 05:34N 49°12' W 122°42'4 3.5
2014-Oct-23 04:25N 49°12' W 122°36'5 5.7
2014-Oct-23 03:33N 49°13' W 122°44'6 5.7
2014-Oct-23 02:33N 49°13' W 122°52'6 5.8
2014-Oct-23 01:33N 49°09' W 122°59'3 3.4
2014-Oct-23 00:33N 49°08' W 123°04'5 4.7
2014-Oct-22 23:34N 49°09' W 122°57'5 4.8
2014-Oct-22 22:33N 49°13' W 122°52'5 5.4
2014-Oct-22 21:33N 49°13' W 122°44'2 1.8
2014-Oct-22 20:31N 49°14' W 122°45'1 1.1
2014-Oct-22 19:21N 49°13' W 122°45'2 2.3
2014-Oct-22 18:33N 49°15' W 122°44'0 0.0
2014-Oct-22 17:30N 49°15' W 122°44'2 2.2
2014-Oct-22 16:30N 49°13' W 122°46'7 6.6
2014-Oct-22 15:31N 49°12' W 122°56'3 3.0
2014-Oct-22 14:33N 49°11' W 123°00'10 4.0
2014-Oct-22 12:12N 49°14' W 122°46'0 0.0
2014-Oct-22 11:32N 49°14' W 122°46'0 0.0
2014-Oct-22 10:32N 49°14' W 122°46'0 0.0
2014-Oct-22 09:33N 49°14' W 122°46'0 0.0
2014-Oct-22 08:33N 49°14' W 122°46'0 0.0
2014-Oct-22 07:30N 49°14' W 122°46'0 0.0
2014-Oct-22 06:33N 49°14' W 122°46'0 0.0
2014-Oct-22 05:33N 49°14' W 122°46'0 0.0
2014-Oct-22 04:33N 49°14' W 122°46'0 0.0
2014-Oct-22 03:33N 49°14' W 122°46'0 0.0
2014-Oct-22 02:33N 49°14' W 122°46'0 0.0
2014-Oct-22 01:12N 49°14' W 122°46'0 0.0
2014-Oct-22 00:22N 49°14' W 122°46'1 1.7
2014-Oct-21 23:32N 49°13' W 122°44'7 7.2
2014-Oct-21 22:33N 49°11' W 122°55'2 1.7
2014-Oct-21 21:33N 49°10' W 122°56'4 4.4
2014-Oct-21 20:33N 49°13' W 122°53'4 4.1
2014-Oct-21 19:33N 49°10' W 122°56'8 7.6
2014-Oct-21 18:29N 49°13' W 122°44'1 1.5
2014-Oct-21 17:33N 49°14' W 122°45'1 1.3
2014-Oct-21 16:33N 49°15' W 122°44'2 1.4
2014-Oct-21 15:20N 49°14' W 122°46'0 0.0
2014-Oct-21 14:33N 49°14' W 122°46'0 0.0
2014-Oct-21 13:33N 49°14' W 122°46'0 0.0
2014-Oct-21 12:32N 49°14' W 122°46'0 0.0
2014-Oct-21 11:33N 49°14' W 122°46'3 2.6
2014-Oct-21 10:33N 49°13' W 122°50'6 6.1
2014-Oct-21 09:33N 49°09' W 122°57'2 2.4
2014-Oct-21 08:33N 49°11' W 122°55'6 5.6
2014-Oct-21 07:33N 49°13' W 122°46'7 6.9
2014-Oct-21 06:31N 49°12' W 122°35'2 1.6
2014-Oct-21 05:30N 49°11' W 122°34'5 4.7
2014-Oct-21 04:32N 49°12' W 122°40'5 4.7
2014-Oct-21 03:33N 49°13' W 122°47'7 7.3
2014-Oct-21 02:33N 49°09' W 122°57'4 4.2
2014-Oct-21 01:33N 49°13' W 122°53'5 5.4
2014-Oct-21 00:33N 49°13' W 122°45'3 2.6
2014-Oct-20 23:33N 49°13' W 122°49'6 6.4
2014-Oct-20 22:33N 49°11' W 122°58'7 7.2
2014-Oct-20 21:33N 49°12' W 123°09'6 6.4
2014-Oct-20 20:33N 49°18' W 123°14'8 7.8
2014-Oct-20 19:33N 49°18' W 123°02'0 0.0
2014-Oct-20 18:33N 49°18' W 123°02'0 0.0
2014-Oct-20 17:33N 49°18' W 123°02'0 0.0
2014-Oct-20 16:33N 49°18' W 123°02'0 0.4
2014-Oct-20 15:33N 49°18' W 123°02'0 0.4
2014-Oct-20 14:33N 49°18' W 123°02'0 0.0
2014-Oct-20 13:33N 49°18' W 123°02'0 0.0
2014-Oct-20 12:33N 49°18' W 123°02'0 0.0
2014-Oct-20 11:33N 49°18' W 123°02'0 0.0
2014-Oct-20 10:33N 49°18' W 123°02'0 0.0
2014-Oct-20 09:33N 49°18' W 123°02'0 0.0
2014-Oct-20 08:33N 49°18' W 123°02'0 0.0
2014-Oct-20 07:33N 49°18' W 123°02'0 0.0
2014-Oct-20 06:34N 49°18' W 123°02'0 0.0
2014-Oct-20 05:33N 49°18' W 123°02'0 0.0
2014-Oct-20 04:33N 49°18' W 123°02'0 0.0
2014-Oct-20 03:33N 49°18' W 123°02'0 0.0
2014-Oct-20 02:33N 49°18' W 123°02'0 0.0
2014-Oct-20 01:33N 49°18' W 123°02'0 0.0
2014-Oct-20 00:33N 49°18' W 123°02'0 0.0
2014-Oct-19 23:33N 49°18' W 123°02'0 0.0
2014-Oct-19 22:33N 49°18' W 123°02'0 0.0
2014-Oct-19 21:33N 49°18' W 123°02'0 0.0
2014-Oct-19 20:33N 49°18' W 123°02'0 0.0
2014-Oct-19 19:33N 49°18' W 123°02'0 0.0
2014-Oct-19 18:33N 49°18' W 123°02'0 0.0
2014-Oct-19 17:33N 49°18' W 123°02'0 0.0
2014-Oct-19 16:33N 49°18' W 123°02'0 0.0
2014-Oct-19 15:33N 49°18' W 123°02'0 0.0
2014-Oct-19 14:33N 49°18' W 123°02'0 0.0
2014-Oct-19 13:33N 49°18' W 123°02'0 0.0
2014-Oct-19 12:33N 49°18' W 123°02'0 0.0
2014-Oct-19 11:33N 49°18' W 123°02'0 0.0
2014-Oct-19 10:33N 49°18' W 123°02'0 0.0
2014-Oct-19 09:33N 49°18' W 123°02'0 0.0
2014-Oct-19 08:33N 49°18' W 123°02'0 0.0
2014-Oct-19 07:33N 49°18' W 123°02'0 0.0
2014-Oct-19 06:33N 49°18' W 123°02'0 0.0
2014-Oct-19 05:33N 49°18' W 123°02'6 5.7
2014-Oct-19 04:33N 49°19' W 123°10'4 3.7
2014-Oct-19 03:33N 49°18' W 123°16'1 1.5
2014-Oct-19 02:33N 49°17' W 123°17'3 2.7
2014-Oct-19 01:33N 49°15' W 123°15'4 4.4
2014-Oct-19 00:33N 49°13' W 123°09'3 3.3
2014-Oct-18 23:33N 49°12' W 123°04'7 5.1
2014-Oct-18 22:09N 49°13' W 122°53'4 2.7
2014-Oct-18 20:31N 49°14' W 122°47'1 0.1
2014-Oct-18 15:32N 49°14' W 122°46'0 0.0
2014-Oct-18 14:33N 49°14' W 122°46'0 0.0
2014-Oct-18 13:33N 49°14' W 122°46'0 0.0
2014-Oct-18 12:31N 49°14' W 122°46'0 0.0
2014-Oct-18 11:32N 49°14' W 122°46'0 0.0
2014-Oct-18 10:33N 49°14' W 122°46'0 0.0
2014-Oct-18 09:33N 49°14' W 122°46'0 0.0
2014-Oct-18 08:20N 49°14' W 122°46'0 0.0
2014-Oct-18 07:31N 49°14' W 122°46'0 0.0
2014-Oct-18 06:31N 49°14' W 122°46'0 0.0
2014-Oct-18 05:33N 49°14' W 122°46'0 0.0
2014-Oct-18 04:28N 49°14' W 122°46'0 0.0
2014-Oct-18 03:15N 49°14' W 122°46'0 0.0
2014-Oct-18 01:25N 49°14' W 122°46'0 0.0
2014-Oct-17 23:28N 49°14' W 122°46'0 0.0
2014-Oct-17 21:24N 49°14' W 122°46'2 2.5
2014-Oct-17 20:33N 49°13' W 122°49'8 8.4
2014-Oct-17 19:33N 49°09' W 123°00'0 0.0
2014-Oct-17 18:33N 49°09' W 123°00'1 1.2
2014-Oct-17 17:33N 49°09' W 123°02'1 0.6
2014-Oct-17 16:33N 49°08' W 123°03'2 1.7
2014-Oct-17 15:33N 49°07' W 123°05'3 2.9
2014-Oct-17 14:33N 49°07' W 123°09'3 2.9
2014-Oct-17 13:33N 49°08' W 123°13'3 3.3
2014-Oct-17 12:33N 49°06' W 123°18'5 5.3
2014-Oct-17 11:33N 49°09' W 123°25'6 6.2
2014-Oct-17 10:33N 49°11' W 123°34'6 5.8
2014-Oct-17 09:33N 49°12' W 123°42'9 9.3
2014-Oct-17 08:33N 49°15' W 123°29'9 9.3
2014-Oct-17 07:33N 49°14' W 123°14'7 6.7
2014-Oct-17 06:33N 49°12' W 123°04'3 3.1
2014-Oct-17 05:33N 49°12' W 123°09'5 5.4
2014-Oct-17 04:33N 49°12' W 123°01'4 3.9
2014-Oct-17 03:32N 49°12' W 122°55'4 3.8
2014-Oct-17 02:33N 49°12' W 123°00'5 5.5
2014-Oct-17 01:33N 49°12' W 123°09'7 7.0
2014-Oct-17 00:33N 49°17' W 123°16'9 9.2
2014-Oct-16 23:33N 49°18' W 123°02'0 0.0
2014-Oct-16 22:34N 49°18' W 123°02'1 0.6
2014-Oct-16 21:33N 49°18' W 123°03'1 1.3
2014-Oct-16 20:33N 49°17' W 123°05'0 0.2
2014-Oct-16 19:33N 49°17' W 123°04'1 1.1
2014-Oct-16 18:33N 49°18' W 123°03'1 1.4
2014-Oct-16 17:33N 49°18' W 123°05'8 7.7
2014-Oct-16 16:33N 49°17' W 123°17'7 7.2
2014-Oct-16 15:33N 49°12' W 123°09'0 0.3
2014-Oct-16 14:33N 49°12' W 123°08'0 0.0
2014-Oct-16 13:33N 49°12' W 123°08'4 3.7
2014-Oct-16 12:33N 49°14' W 123°13'4 3.7
2014-Oct-16 11:33N 49°13' W 123°19'6 5.6
2014-Oct-16 10:33N 49°07' W 123°16'9 8.5
2014-Oct-16 09:33N 49°08' W 123°03'6 5.7
2014-Oct-16 08:33N 49°11' W 122°55'1 0.8
2014-Oct-16 07:33N 49°11' W 122°56'2 2.1
2014-Oct-16 06:33N 49°10' W 122°59'2 1.9
2014-Oct-16 05:25N 49°12' W 122°57'5 5.8
2014-Oct-16 04:33N 49°12' W 123°05'6 6.2
2014-Oct-16 03:33N 49°14' W 123°14'6 5.7
2014-Oct-16 02:33N 49°15' W 123°22'3 2.9
2014-Oct-16 01:33N 49°16' W 123°18'5 5.2
2014-Oct-16 00:33N 49°13' W 123°11'5 5.3
2014-Oct-15 23:32N 49°12' W 123°03'5 4.7
2014-Oct-15 22:33N 49°12' W 122°56'1 1.0
2014-Oct-15 21:34N 49°11' W 122°56'0 0.0
2014-Oct-15 20:33N 49°11' W 122°56'1 1.1
2014-Oct-15 19:15N 49°12' W 122°55'5 6.8
2014-Oct-15 18:33N 49°09' W 123°00'2 1.5
2014-Oct-15 17:34N 49°09' W 123°03'6 5.6
2014-Oct-15 16:33N 49°07' W 123°11'5 5.0
2014-Oct-15 15:33N 49°06' W 123°18'6 6.1
2014-Oct-15 14:34N 49°12' W 123°18'5 4.5
2014-Oct-15 13:34N 49°16' W 123°21'4 4.3
2014-Oct-15 12:33N 49°16' W 123°28'8 8.4
2014-Oct-15 11:33N 49°15' W 123°41'9 8.7
2014-Oct-15 10:32N 49°11' W 123°53'0 0.3
2014-Oct-15 09:34N 49°11' W 123°53'8 7.5
2014-Oct-15 08:33N 49°12' W 123°42'9 8.9
2014-Oct-15 07:33N 49°09' W 123°29'8 7.7
2014-Oct-15 06:33N 49°06' W 123°18'9 8.8
2014-Oct-15 05:33N 49°07' W 123°04'6 6.1
2014-Oct-15 04:34N 49°10' W 122°56'8 7.7
2014-Oct-15 03:32N 49°14' W 122°46'  
Track history (hours):
 
Tides and Currents Weather Stations Pressure Air Temp Water Temp Dewpoint Dewpoint Depression Visibility Wind Speed Wind Dir Waves Ship Positions

Westview Chinook

Last reported at 2014-Oct-25 02:33 UTC. Time now 2014-Oct-25 03:30 UTC.
Position N 49°12' W 123°03'.

Length 16 m; draft 3.5 m.

Type: Towing. MMSI: 316005622.

Date/timePositionNaut miles runAvg speedWind from/ knotsBaromVisibWave heightAir tempDewpointWater temp
2014-Oct-25 02:33N 49°12' W 123°03'0 0.0
2014-Oct-25 01:33N 49°12' W 123°03'0 0.0
2014-Oct-25 00:33N 49°12' W 123°03'0 0.0
2014-Oct-24 23:33N 49°12' W 123°03'0 0.4
2014-Oct-24 22:33N 49°12' W 123°02'5 4.7
2014-Oct-24 21:33N 49°11' W 122°55'1 1.3
2014-Oct-24 20:33N 49°10' W 122°56'7 7.0
2014-Oct-24 19:33N 49°07' W 123°06'4 3.9
2014-Oct-24 18:33N 49°07' W 123°11'3 3.4
2014-Oct-24 17:33N 49°07' W 123°06'8 7.7
2014-Oct-24 16:33N 49°10' W 122°56'7 6.6
2014-Oct-24 15:31N 49°13' W 122°46'4 3.9
2014-Oct-24 14:33N 49°11' W 122°41'5 5.0
2014-Oct-24 13:33N 49°13' W 122°48'4 3.8
2014-Oct-24 12:32N 49°13' W 122°54'0 0.5
2014-Oct-24 11:33N 49°13' W 122°53'4 4.2
2014-Oct-24 10:33N 49°10' W 122°57'3 2.7
2014-Oct-24 09:33N 49°12' W 122°54'1 1.5
2014-Oct-24 08:33N 49°13' W 122°53'7 6.8
2014-Oct-24 07:33N 49°11' W 122°43'1 0.9
2014-Oct-24 06:33N 49°11' W 122°42'3 2.7
2014-Oct-24 05:27N 49°13' W 122°45'4 4.9
2014-Oct-24 04:33N 49°13' W 122°52'5 5.2
2014-Oct-24 03:33N 49°11' W 122°59'4 3.7
2014-Oct-24 02:33N 49°12' W 123°04'6 5.5
2014-Oct-24 01:33N 49°10' W 122°56'3 2.9
2014-Oct-24 00:33N 49°12' W 122°54'7 6.6
2014-Oct-23 23:33N 49°13' W 122°44'2 2.3
2014-Oct-23 22:33N 49°11' W 122°41'1 0.6
2014-Oct-23 21:33N 49°11' W 122°42'2 1.6
2014-Oct-23 20:30N 49°12' W 122°44'5 4.9
2014-Oct-23 19:33N 49°13' W 122°51'5 4.5
2014-Oct-23 18:33N 49°10' W 122°56'1 1.1
2014-Oct-23 17:33N 49°09' W 122°57'5 4.7
2014-Oct-23 16:33N 49°13' W 122°53'6 5.7
2014-Oct-23 15:33N 49°13' W 122°44'2 2.2
2014-Oct-23 14:33N 49°11' W 122°41'6 6.1
2014-Oct-23 13:33N 49°13' W 122°50'5 4.4
2014-Oct-23 12:27N 49°12' W 122°57'5 5.1
2014-Oct-23 11:33N 49°12' W 123°04'3 3.2
2014-Oct-23 10:34N 49°12' W 123°09'3 3.3
2014-Oct-23 09:33N 49°12' W 123°04'6 5.3
2014-Oct-23 08:30N 49°12' W 122°56'3 3.3
2014-Oct-23 07:34N 49°13' W 122°51'1 0.8
2014-Oct-23 06:33N 49°13' W 122°52'7 6.9
2014-Oct-23 05:34N 49°12' W 122°42'4 3.5
2014-Oct-23 04:25N 49°12' W 122°36'5 5.7
2014-Oct-23 03:33N 49°13' W 122°44'6 5.7
2014-Oct-23 02:33N 49°13' W 122°52'6 5.8
2014-Oct-23 01:33N 49°09' W 122°59'3 3.4
2014-Oct-23 00:33N 49°08' W 123°04'5 4.7
2014-Oct-22 23:34N 49°09' W 122°57'5 4.8
2014-Oct-22 22:33N 49°13' W 122°52'5 5.4
2014-Oct-22 21:33N 49°13' W 122°44'2 1.8
2014-Oct-22 20:31N 49°14' W 122°45'1 1.1
2014-Oct-22 19:21N 49°13' W 122°45'2 2.3
2014-Oct-22 18:33N 49°15' W 122°44'0 0.0
2014-Oct-22 17:30N 49°15' W 122°44'2 2.2
2014-Oct-22 16:30N 49°13' W 122°46'7 6.6
2014-Oct-22 15:31N 49°12' W 122°56'3 3.0
2014-Oct-22 14:33N 49°11' W 123°00'10 4.0
2014-Oct-22 12:12N 49°14' W 122°46'0 0.0
2014-Oct-22 11:32N 49°14' W 122°46'0 0.0
2014-Oct-22 10:32N 49°14' W 122°46'0 0.0
2014-Oct-22 09:33N 49°14' W 122°46'0 0.0
2014-Oct-22 08:33N 49°14' W 122°46'0 0.0
2014-Oct-22 07:30N 49°14' W 122°46'0 0.0
2014-Oct-22 06:33N 49°14' W 122°46'0 0.0
2014-Oct-22 05:33N 49°14' W 122°46'0 0.0
2014-Oct-22 04:33N 49°14' W 122°46'0 0.0
2014-Oct-22 03:33N 49°14' W 122°46'0 0.0
2014-Oct-22 02:33N 49°14' W 122°46'0 0.0
2014-Oct-22 01:12N 49°14' W 122°46'0 0.0
2014-Oct-22 00:22N 49°14' W 122°46'1 1.7
2014-Oct-21 23:32N 49°13' W 122°44'7 7.2
2014-Oct-21 22:33N 49°11' W 122°55'2 1.7
2014-Oct-21 21:33N 49°10' W 122°56'4 4.4
2014-Oct-21 20:33N 49°13' W 122°53'4 4.1
2014-Oct-21 19:33N 49°10' W 122°56'8 7.6
2014-Oct-21 18:29N 49°13' W 122°44'1 1.5
2014-Oct-21 17:33N 49°14' W 122°45'1 1.3
2014-Oct-21 16:33N 49°15' W 122°44'2 1.4
2014-Oct-21 15:20N 49°14' W 122°46'0 0.0
2014-Oct-21 14:33N 49°14' W 122°46'0 0.0
2014-Oct-21 13:33N 49°14' W 122°46'0 0.0
2014-Oct-21 12:32N 49°14' W 122°46'0 0.0
2014-Oct-21 11:33N 49°14' W 122°46'3 2.6
2014-Oct-21 10:33N 49°13' W 122°50'6 6.1
2014-Oct-21 09:33N 49°09' W 122°57'2 2.4
2014-Oct-21 08:33N 49°11' W 122°55'6 5.6
2014-Oct-21 07:33N 49°13' W 122°46'7 6.9
2014-Oct-21 06:31N 49°12' W 122°35'2 1.6
2014-Oct-21 05:30N 49°11' W 122°34'5 4.7
2014-Oct-21 04:32N 49°12' W 122°40'5 4.7
2014-Oct-21 03:33N 49°13' W 122°47'7 7.3
2014-Oct-21 02:33N 49°09' W 122°57'4 4.2
2014-Oct-21 01:33N 49°13' W 122°53'5 5.4
2014-Oct-21 00:33N 49°13' W 122°45'3 2.6
2014-Oct-20 23:33N 49°13' W 122°49'6 6.4
2014-Oct-20 22:33N 49°11' W 122°58'7 7.2
2014-Oct-20 21:33N 49°12' W 123°09'6 6.4
2014-Oct-20 20:33N 49°18' W 123°14'8 7.8
2014-Oct-20 19:33N 49°18' W 123°02'0 0.0
2014-Oct-20 18:33N 49°18' W 123°02'0 0.0
2014-Oct-20 17:33N 49°18' W 123°02'0 0.0
2014-Oct-20 16:33N 49°18' W 123°02'0 0.4
2014-Oct-20 15:33N 49°18' W 123°02'0 0.4
2014-Oct-20 14:33N 49°18' W 123°02'0 0.0
2014-Oct-20 13:33N 49°18' W 123°02'0 0.0
2014-Oct-20 12:33N 49°18' W 123°02'0 0.0
2014-Oct-20 11:33N 49°18' W 123°02'0 0.0
2014-Oct-20 10:33N 49°18' W 123°02'0 0.0
2014-Oct-20 09:33N 49°18' W 123°02'0 0.0
2014-Oct-20 08:33N 49°18' W 123°02'0 0.0
2014-Oct-20 07:33N 49°18' W 123°02'0 0.0
2014-Oct-20 06:34N 49°18' W 123°02'0 0.0
2014-Oct-20 05:33N 49°18' W 123°02'0 0.0
2014-Oct-20 04:33N 49°18' W 123°02'0 0.0
2014-Oct-20 03:33N 49°18' W 123°02'0 0.0
2014-Oct-20 02:33N 49°18' W 123°02'0 0.0
2014-Oct-20 01:33N 49°18' W 123°02'0 0.0
2014-Oct-20 00:33N 49°18' W 123°02'0 0.0
2014-Oct-19 23:33N 49°18' W 123°02'0 0.0
2014-Oct-19 22:33N 49°18' W 123°02'0 0.0
2014-Oct-19 21:33N 49°18' W 123°02'0 0.0
2014-Oct-19 20:33N 49°18' W 123°02'0 0.0
2014-Oct-19 19:33N 49°18' W 123°02'0 0.0
2014-Oct-19 18:33N 49°18' W 123°02'0 0.0
2014-Oct-19 17:33N 49°18' W 123°02'0 0.0
2014-Oct-19 16:33N 49°18' W 123°02'0 0.0
2014-Oct-19 15:33N 49°18' W 123°02'0 0.0
2014-Oct-19 14:33N 49°18' W 123°02'0 0.0
2014-Oct-19 13:33N 49°18' W 123°02'0 0.0
2014-Oct-19 12:33N 49°18' W 123°02'0 0.0
2014-Oct-19 11:33N 49°18' W 123°02'0 0.0
2014-Oct-19 10:33N 49°18' W 123°02'0 0.0
2014-Oct-19 09:33N 49°18' W 123°02'0 0.0
2014-Oct-19 08:33N 49°18' W 123°02'0 0.0
2014-Oct-19 07:33N 49°18' W 123°02'0 0.0
2014-Oct-19 06:33N 49°18' W 123°02'0 0.0
2014-Oct-19 05:33N 49°18' W 123°02'6 5.7
2014-Oct-19 04:33N 49°19' W 123°10'4 3.7
2014-Oct-19 03:33N 49°18' W 123°16'1 1.5
2014-Oct-19 02:33N 49°17' W 123°17'3 2.7
2014-Oct-19 01:33N 49°15' W 123°15'4 4.4
2014-Oct-19 00:33N 49°13' W 123°09'3 3.3
2014-Oct-18 23:33N 49°12' W 123°04'7 5.1
2014-Oct-18 22:09N 49°13' W 122°53'4 2.7
2014-Oct-18 20:31N 49°14' W 122°47'1 0.1
2014-Oct-18 15:32N 49°14' W 122°46'0 0.0
2014-Oct-18 14:33N 49°14' W 122°46'0 0.0
2014-Oct-18 13:33N 49°14' W 122°46'0 0.0
2014-Oct-18 12:31N 49°14' W 122°46'0 0.0
2014-Oct-18 11:32N 49°14' W 122°46'0 0.0
2014-Oct-18 10:33N 49°14' W 122°46'0 0.0
2014-Oct-18 09:33N 49°14' W 122°46'0 0.0
2014-Oct-18 08:20N 49°14' W 122°46'0 0.0
2014-Oct-18 07:31N 49°14' W 122°46'0 0.0
2014-Oct-18 06:31N 49°14' W 122°46'0 0.0
2014-Oct-18 05:33N 49°14' W 122°46'0 0.0
2014-Oct-18 04:28N 49°14' W 122°46'0 0.0
2014-Oct-18 03:15N 49°14' W 122°46'0 0.0
2014-Oct-18 01:25N 49°14' W 122°46'0 0.0
2014-Oct-17 23:28N 49°14' W 122°46'0 0.0
2014-Oct-17 21:24N 49°14' W 122°46'2 2.5
2014-Oct-17 20:33N 49°13' W 122°49'8 8.4
2014-Oct-17 19:33N 49°09' W 123°00'0 0.0
2014-Oct-17 18:33N 49°09' W 123°00'1 1.2
2014-Oct-17 17:33N 49°09' W 123°02'1 0.6
2014-Oct-17 16:33N 49°08' W 123°03'2 1.7
2014-Oct-17 15:33N 49°07' W 123°05'3 2.9
2014-Oct-17 14:33N 49°07' W 123°09'3 2.9
2014-Oct-17 13:33N 49°08' W 123°13'3 3.3
2014-Oct-17 12:33N 49°06' W 123°18'5 5.3
2014-Oct-17 11:33N 49°09' W 123°25'6 6.2
2014-Oct-17 10:33N 49°11' W 123°34'6 5.8
2014-Oct-17 09:33N 49°12' W 123°42'9 9.3
2014-Oct-17 08:33N 49°15' W 123°29'9 9.3
2014-Oct-17 07:33N 49°14' W 123°14'7 6.7
2014-Oct-17 06:33N 49°12' W 123°04'3 3.1
2014-Oct-17 05:33N 49°12' W 123°09'5 5.4
2014-Oct-17 04:33N 49°12' W 123°01'4 3.9
2014-Oct-17 03:32N 49°12' W 122°55'4 3.8
2014-Oct-17 02:33N 49°12' W 123°00'5 5.5
2014-Oct-17 01:33N 49°12' W 123°09'7 7.0
2014-Oct-17 00:33N 49°17' W 123°16'9 9.2
2014-Oct-16 23:33N 49°18' W 123°02'0 0.0
2014-Oct-16 22:34N 49°18' W 123°02'1 0.6
2014-Oct-16 21:33N 49°18' W 123°03'1 1.3
2014-Oct-16 20:33N 49°17' W 123°05'0 0.2
2014-Oct-16 19:33N 49°17' W 123°04'1 1.1
2014-Oct-16 18:33N 49°18' W 123°03'1 1.4
2014-Oct-16 17:33N 49°18' W 123°05'8 7.7
2014-Oct-16 16:33N 49°17' W 123°17'7 7.2
2014-Oct-16 15:33N 49°12' W 123°09'0 0.3
2014-Oct-16 14:33N 49°12' W 123°08'0 0.0
2014-Oct-16 13:33N 49°12' W 123°08'4 3.7
2014-Oct-16 12:33N 49°14' W 123°13'4 3.7
2014-Oct-16 11:33N 49°13' W 123°19'6 5.6
2014-Oct-16 10:33N 49°07' W 123°16'9 8.5
2014-Oct-16 09:33N 49°08' W 123°03'6 5.7
2014-Oct-16 08:33N 49°11' W 122°55'1 0.8
2014-Oct-16 07:33N 49°11' W 122°56'2 2.1
2014-Oct-16 06:33N 49°10' W 122°59'2 1.9
2014-Oct-16 05:25N 49°12' W 122°57'5 5.8
2014-Oct-16 04:33N 49°12' W 123°05'6 6.2
2014-Oct-16 03:33N 49°14' W 123°14'6 5.7
2014-Oct-16 02:33N 49°15' W 123°22'3 2.9
2014-Oct-16 01:33N 49°16' W 123°18'5 5.2
2014-Oct-16 00:33N 49°13' W 123°11'5 5.3
2014-Oct-15 23:32N 49°12' W 123°03'5 4.7
2014-Oct-15 22:33N 49°12' W 122°56'1 1.0
2014-Oct-15 21:34N 49°11' W 122°56'0 0.0
2014-Oct-15 20:33N 49°11' W 122°56'1 1.1
2014-Oct-15 19:15N 49°12' W 122°55'5 6.8
2014-Oct-15 18:33N 49°09' W 123°00'2 1.5
2014-Oct-15 17:34N 49°09' W 123°03'6 5.6
2014-Oct-15 16:33N 49°07' W 123°11'5 5.0
2014-Oct-15 15:33N 49°06' W 123°18'6 6.1
2014-Oct-15 14:34N 49°12' W 123°18'5 4.5
2014-Oct-15 13:34N 49°16' W 123°21'4 4.3
2014-Oct-15 12:33N 49°16' W 123°28'8 8.4
2014-Oct-15 11:33N 49°15' W 123°41'9 8.7
2014-Oct-15 10:32N 49°11' W 123°53'0 0.3
2014-Oct-15 09:34N 49°11' W 123°53'8 7.5
2014-Oct-15 08:33N 49°12' W 123°42'9 8.9
2014-Oct-15 07:33N 49°09' W 123°29'8 7.7
2014-Oct-15 06:33N 49°06' W 123°18'9 8.8
2014-Oct-15 05:33N 49°07' W 123°04'6 6.1
2014-Oct-15 04:34N 49°10' W 122°56'8 7.7
2014-Oct-15 03:32N 49°14' W 122°46'  

Dump ship's entire track history